Cylinder, Iowa
Current Conditions -  °F | °C
As of 10:55 PM on Monday 22 Dec 2014 (Local Time) from KAXA Reporting Station
Light Snow Light Snow  
Wind Chill: -3°   Ceiling: 300
Heat Index:   Visibility: 2mi
Dew Point:   Wind: 9mph
Humidity: 100%   Direction: 70°ENE
Pressure: 29.5"   Gusts: NA
Location:  43.09°N, 94.55°W
Report Text: KAXA 230455Z AUTO 07008KT 2SM -SN OVC003 01/01 A2950 RMK AO2 P0002
Loading
Personal Weather Stations






























Interactive Weather Map New forecast layout! Learn more

10-Day Weather Forecast

Advertisements
Track Severe Weather on mobile